Peleus — V2FV2 — position and weather

sailwx.info

Track history (hours):
 
Tides and Currents Weather Stations Pressure Air Temp Water Temp Dewpoint Dewpoint Depression Visibility Wind Speed Wind Dir Waves Ship Positions

Peleus

Last reported at 2017-Sep-23 21:30 UTC. Time now 2017-Sep-23 21:36 UTC.
Position N 51°54' E 004°28'.

Length 88 m; draft 3.4 m.

Type: Ship. MMSI: 305810000.

Date/timePositionNaut miles runAvg speedWind from/ knotsBaromVisibWave heightAir tempDewpointWater temp
2017-Sep-23 21:30N 51°54' E 004°28'0 0.0
2017-Sep-23 21:00N 51°54' E 004°28'0 0.0
2017-Sep-23 20:30N 51°54' E 004°28'0 0.0
2017-Sep-23 20:00N 51°54' E 004°28'27 0.6
2017-Sep-22 01:49N 51°57' E 003°44'0 0.0
2017-Sep-22 01:19N 51°57' E 003°44'0 0.0
2017-Sep-22 00:58N 51°57' E 003°44'0 0.2
2017-Sep-22 00:25N 51°57' E 003°44'0 0.1
2017-Sep-21 23:58N 51°57' E 003°44'0 0.1
2017-Sep-21 23:28N 51°56' E 003°44'0 0.0
2017-Sep-21 22:52N 51°56' E 003°44'0 0.0
2017-Sep-21 22:28N 51°56' E 003°44'0 0.0
2017-Sep-21 21:55N 51°56' E 003°44'0 0.0
2017-Sep-21 21:28N 51°56' E 003°44'0 0.0
2017-Sep-21 20:55N 51°57' E 003°44'0 0.1
2017-Sep-21 20:28N 51°57' E 003°44'0 0.0
2017-Sep-21 19:52N 51°57' E 003°44'0 0.1
2017-Sep-21 18:40N 51°57' E 003°44'0 0.0
2017-Sep-21 18:22N 51°57' E 003°44'0 0.0
2017-Sep-21 17:52N 51°57' E 003°44'0 0.0
2017-Sep-21 17:22N 51°57' E 003°44'0 0.0
2017-Sep-21 16:52N 51°57' E 003°44'0 0.0
2017-Sep-21 15:37N 51°57' E 003°44'0 0.1
2017-Sep-21 11:52N 51°56' E 003°44'0 0.0
2017-Sep-21 11:22N 51°56' E 003°44'0 0.0
2017-Sep-21 10:49N 51°56' E 003°44'0 0.0
2017-Sep-21 10:04N 51°56' E 003°44'0 0.0
2017-Sep-21 09:55N 51°56' E 003°44'0 0.0
2017-Sep-21 09:13N 51°56' E 003°44'0 0.0
2017-Sep-21 08:55N 51°56' E 003°44'0 0.0
2017-Sep-21 08:28N 51°56' E 003°44'0 0.0
2017-Sep-21 07:58N 51°56' E 003°44'0 0.3
2017-Sep-21 07:16N 51°57' E 003°44'0 0.1
2017-Sep-21 06:46N 51°57' E 003°44'0 0.0
2017-Sep-21 06:28N 51°57' E 003°44'0 0.0
2017-Sep-21 05:46N 51°57' E 003°44'0 0.0
2017-Sep-21 05:28N 51°57' E 003°44'0 0.0
2017-Sep-21 04:52N 51°57' E 003°44'0 0.0
2017-Sep-21 04:25N 51°57' E 003°44'0 0.0
2017-Sep-21 03:58N 51°57' E 003°44'0 0.0
2017-Sep-21 03:28N 51°57' E 003°44'0 0.0
2017-Sep-21 02:58N 51°57' E 003°44'0 0.0
2017-Sep-21 02:25N 51°57' E 003°44'0 0.0
2017-Sep-21 01:58N 51°57' E 003°44'0 0.0
2017-Sep-21 01:04N 51°57' E 003°44'0 0.0
2017-Sep-21 00:52N 51°57' E 003°44'0 0.0
2017-Sep-21 00:28N 51°57' E 003°44'0 0.1
2017-Sep-20 23:55N 51°57' E 003°44'0 0.2
2017-Sep-20 23:25N 51°57' E 003°44'0 0.0
2017-Sep-20 22:52N 51°57' E 003°44'0 0.0
2017-Sep-20 22:25N 51°57' E 003°44'0 0.0
2017-Sep-20 21:55N 51°57' E 003°44'0 0.0
2017-Sep-20 21:28N 51°57' E 003°44'0 0.0
2017-Sep-20 20:55N 51°57' E 003°44'0 0.0
2017-Sep-20 20:28N 51°57' E 003°44'0 0.0
2017-Sep-20 19:46N 51°57' E 003°44'0 0.4
2017-Sep-20 19:28N 51°57' E 003°44'0 0.2
2017-Sep-20 18:58N 51°57' E 003°44'0 0.0
2017-Sep-20 18:13N 51°57' E 003°44'0 0.0
2017-Sep-20 17:04N 51°57' E 003°44'0 0.0
2017-Sep-20 16:49N 51°57' E 003°44'0 0.0
2017-Sep-20 16:13N 51°57' E 003°44'0 0.0
2017-Sep-20 15:37N 51°57' E 003°44'0 0.0
2017-Sep-20 14:37N 51°57' E 003°44'0 0.0
2017-Sep-20 13:55N 51°57' E 003°44'0 0.0
2017-Sep-20 13:19N 51°57' E 003°44'0 0.0
2017-Sep-20 12:49N 51°57' E 003°44'0 0.1
2017-Sep-20 12:28N 51°57' E 003°44'0 0.1
2017-Sep-20 11:58N 51°57' E 003°44'0 0.2
2017-Sep-20 11:28N 51°56' E 003°44'0 0.6
2017-Sep-20 11:00N 51°57' E 003°44'46 7.9
2017-Sep-20 05:06N 51°42' E 002°33'2 9.4
2017-Sep-20 04:55N 51°40' E 002°31'6 9.7
2017-Sep-20 04:19N 51°36' E 002°25'310.1
2017-Sep-20 04:00N 51°33' E 002°22'510.3
2017-Sep-20 03:30N 51°29' E 002°16'510.5
2017-Sep-20 03:00N 51°25' E 002°12'510.8
2017-Sep-20 02:30N 51°20' E 002°09'611.1
2017-Sep-20 02:00N 51°15' E 002°05'611.6
2017-Sep-20 01:30N 51°12' E 001°57'611.8
2017-Sep-20 01:00N 51°08' E 001°49'612.4
2017-Sep-20 00:30N 51°04' E 001°42'712.9
2017-Sep-20 00:00N 50°59' E 001°35'713.1
2017-Sep-19 23:29N 50°54' E 001°29'104 8.9
2017-Sep-19 11:51N 50°08' W 000°57'3 7.7
2017-Sep-19 11:31N 50°07' W 001°01'4 8.3
2017-Sep-19 11:00N 50°06' W 001°07'5 9.1
2017-Sep-19 10:30N 50°05' W 001°14'5 9.9
2017-Sep-19 10:00N 50°04' W 001°22'510.7
2017-Sep-19 09:30N 50°02' W 001°30'611.4
2017-Sep-19 09:01N 50°01' W 001°38'612.1
2017-Sep-19 08:30N 49°59' W 001°47'612.5
2017-Sep-19 08:01N 49°58' W 001°57'712.8
2017-Sep-19 07:29N 49°56' W 002°07'126 9.2
2017-Sep-18 17:51N 48°58' W 004°59'3 9.4
2017-Sep-18 17:30N 48°57' W 005°04'5 9.7
2017-Sep-18 17:00N 48°55' W 005°10'510.1
2017-Sep-18 16:30N 48°52' W 005°17'510.1
2017-Sep-18 15:59N 48°50' W 005°24'510.2
2017-Sep-18 15:28N 48°47' W 005°31'2010.5
2017-Sep-18 13:33N 48°30' W 005°47'2710.4
2017-Sep-18 10:58N 48°04' W 005°57'10 9.4
2017-Sep-18 09:53N 47°54' W 006°01'17 9.1
2017-Sep-18 07:58N 47°37' W 006°07'  
Track history (hours):
 
Tides and Currents Weather Stations Pressure Air Temp Water Temp Dewpoint Dewpoint Depression Visibility Wind Speed Wind Dir Waves Ship Positions

Peleus

Last reported at 2017-Sep-23 21:30 UTC. Time now 2017-Sep-23 21:36 UTC.
Position N 51°54' E 004°28'.

Length 88 m; draft 3.4 m.

Type: Ship. MMSI: 305810000.

Date/timePositionNaut miles runAvg speedWind from/ knotsBaromVisibWave heightAir tempDewpointWater temp
2017-Sep-23 21:30N 51°54' E 004°28'0 0.0
2017-Sep-23 21:00N 51°54' E 004°28'0 0.0
2017-Sep-23 20:30N 51°54' E 004°28'0 0.0
2017-Sep-23 20:00N 51°54' E 004°28'27 0.6
2017-Sep-22 01:49N 51°57' E 003°44'0 0.0
2017-Sep-22 01:19N 51°57' E 003°44'0 0.0
2017-Sep-22 00:58N 51°57' E 003°44'0 0.2
2017-Sep-22 00:25N 51°57' E 003°44'0 0.1
2017-Sep-21 23:58N 51°57' E 003°44'0 0.1
2017-Sep-21 23:28N 51°56' E 003°44'0 0.0
2017-Sep-21 22:52N 51°56' E 003°44'0 0.0
2017-Sep-21 22:28N 51°56' E 003°44'0 0.0
2017-Sep-21 21:55N 51°56' E 003°44'0 0.0
2017-Sep-21 21:28N 51°56' E 003°44'0 0.0
2017-Sep-21 20:55N 51°57' E 003°44'0 0.1
2017-Sep-21 20:28N 51°57' E 003°44'0 0.0
2017-Sep-21 19:52N 51°57' E 003°44'0 0.1
2017-Sep-21 18:40N 51°57' E 003°44'0 0.0
2017-Sep-21 18:22N 51°57' E 003°44'0 0.0
2017-Sep-21 17:52N 51°57' E 003°44'0 0.0
2017-Sep-21 17:22N 51°57' E 003°44'0 0.0
2017-Sep-21 16:52N 51°57' E 003°44'0 0.0
2017-Sep-21 15:37N 51°57' E 003°44'0 0.1
2017-Sep-21 11:52N 51°56' E 003°44'0 0.0
2017-Sep-21 11:22N 51°56' E 003°44'0 0.0
2017-Sep-21 10:49N 51°56' E 003°44'0 0.0
2017-Sep-21 10:04N 51°56' E 003°44'0 0.0
2017-Sep-21 09:55N 51°56' E 003°44'0 0.0
2017-Sep-21 09:13N 51°56' E 003°44'0 0.0
2017-Sep-21 08:55N 51°56' E 003°44'0 0.0
2017-Sep-21 08:28N 51°56' E 003°44'0 0.0
2017-Sep-21 07:58N 51°56' E 003°44'0 0.3
2017-Sep-21 07:16N 51°57' E 003°44'0 0.1
2017-Sep-21 06:46N 51°57' E 003°44'0 0.0
2017-Sep-21 06:28N 51°57' E 003°44'0 0.0
2017-Sep-21 05:46N 51°57' E 003°44'0 0.0
2017-Sep-21 05:28N 51°57' E 003°44'0 0.0
2017-Sep-21 04:52N 51°57' E 003°44'0 0.0
2017-Sep-21 04:25N 51°57' E 003°44'0 0.0
2017-Sep-21 03:58N 51°57' E 003°44'0 0.0
2017-Sep-21 03:28N 51°57' E 003°44'0 0.0
2017-Sep-21 02:58N 51°57' E 003°44'0 0.0
2017-Sep-21 02:25N 51°57' E 003°44'0 0.0
2017-Sep-21 01:58N 51°57' E 003°44'0 0.0
2017-Sep-21 01:04N 51°57' E 003°44'0 0.0
2017-Sep-21 00:52N 51°57' E 003°44'0 0.0
2017-Sep-21 00:28N 51°57' E 003°44'0 0.1
2017-Sep-20 23:55N 51°57' E 003°44'0 0.2
2017-Sep-20 23:25N 51°57' E 003°44'0 0.0
2017-Sep-20 22:52N 51°57' E 003°44'0 0.0
2017-Sep-20 22:25N 51°57' E 003°44'0 0.0
2017-Sep-20 21:55N 51°57' E 003°44'0 0.0
2017-Sep-20 21:28N 51°57' E 003°44'0 0.0
2017-Sep-20 20:55N 51°57' E 003°44'0 0.0
2017-Sep-20 20:28N 51°57' E 003°44'0 0.0
2017-Sep-20 19:46N 51°57' E 003°44'0 0.4
2017-Sep-20 19:28N 51°57' E 003°44'0 0.2
2017-Sep-20 18:58N 51°57' E 003°44'0 0.0
2017-Sep-20 18:13N 51°57' E 003°44'0 0.0
2017-Sep-20 17:04N 51°57' E 003°44'0 0.0
2017-Sep-20 16:49N 51°57' E 003°44'0 0.0
2017-Sep-20 16:13N 51°57' E 003°44'0 0.0
2017-Sep-20 15:37N 51°57' E 003°44'0 0.0
2017-Sep-20 14:37N 51°57' E 003°44'0 0.0
2017-Sep-20 13:55N 51°57' E 003°44'0 0.0
2017-Sep-20 13:19N 51°57' E 003°44'0 0.0
2017-Sep-20 12:49N 51°57' E 003°44'0 0.1
2017-Sep-20 12:28N 51°57' E 003°44'0 0.1
2017-Sep-20 11:58N 51°57' E 003°44'0 0.2
2017-Sep-20 11:28N 51°56' E 003°44'0 0.6
2017-Sep-20 11:00N 51°57' E 003°44'46 7.9
2017-Sep-20 05:06N 51°42' E 002°33'2 9.4
2017-Sep-20 04:55N 51°40' E 002°31'6 9.7
2017-Sep-20 04:19N 51°36' E 002°25'310.1
2017-Sep-20 04:00N 51°33' E 002°22'510.3
2017-Sep-20 03:30N 51°29' E 002°16'510.5
2017-Sep-20 03:00N 51°25' E 002°12'510.8
2017-Sep-20 02:30N 51°20' E 002°09'611.1
2017-Sep-20 02:00N 51°15' E 002°05'611.6
2017-Sep-20 01:30N 51°12' E 001°57'611.8
2017-Sep-20 01:00N 51°08' E 001°49'612.4
2017-Sep-20 00:30N 51°04' E 001°42'712.9
2017-Sep-20 00:00N 50°59' E 001°35'713.1
2017-Sep-19 23:29N 50°54' E 001°29'104 8.9
2017-Sep-19 11:51N 50°08' W 000°57'3 7.7
2017-Sep-19 11:31N 50°07' W 001°01'4 8.3
2017-Sep-19 11:00N 50°06' W 001°07'5 9.1
2017-Sep-19 10:30N 50°05' W 001°14'5 9.9
2017-Sep-19 10:00N 50°04' W 001°22'510.7
2017-Sep-19 09:30N 50°02' W 001°30'611.4
2017-Sep-19 09:01N 50°01' W 001°38'612.1
2017-Sep-19 08:30N 49°59' W 001°47'612.5
2017-Sep-19 08:01N 49°58' W 001°57'712.8
2017-Sep-19 07:29N 49°56' W 002°07'126 9.2
2017-Sep-18 17:51N 48°58' W 004°59'3 9.4
2017-Sep-18 17:30N 48°57' W 005°04'5 9.7
2017-Sep-18 17:00N 48°55' W 005°10'510.1
2017-Sep-18 16:30N 48°52' W 005°17'510.1
2017-Sep-18 15:59N 48°50' W 005°24'510.2
2017-Sep-18 15:28N 48°47' W 005°31'2010.5
2017-Sep-18 13:33N 48°30' W 005°47'2710.4
2017-Sep-18 10:58N 48°04' W 005°57'10 9.4
2017-Sep-18 09:53N 47°54' W 006°01'17 9.1
2017-Sep-18 07:58N 47°37' W 006°07'  

Dump ship's entire track history